Time;durP1;ratioP1;P1;durP2;ratioP2;P2;SDS_P1;SDS_P2;PMS_P1;PMS_P2;Temp;Humidity;BMP_temperature;BMP_pressure;BME280_temperature;BME280_humidity;BME280_pressure;Samples;Min_cycle;Max_cycle;Signal;HPM_P1;HPM_P2
2022/05/10 00:00:17;;;;;;;7.60;5.45;;;;;;;10.93;75.17;102105.44;5111790;28;20511;-74
2022/05/10 00:02:47;;;;;;;10.57;6.10;;;;;;;10.92;75.14;102105.56;5112237;28;20057;-73
2022/05/10 00:05:12;;;;;;;9.02;4.80;;;;;;;10.90;75.32;102102.16;5110538;28;20082;-78
2022/05/10 00:07:39;;;;;;;10.25;5.07;;;;;;;10.87;75.16;102099.72;5110220;28;20102;-74
2022/05/10 00:10:08;;;;;;;14.52;5.75;;;;;;;10.85;75.41;102097.16;5111691;28;20039;-74
2022/05/10 00:12:34;;;;;;;13.02;5.20;;;;;;;10.85;75.39;102097.16;5111138;28;20360;-74
2022/05/10 00:15:00;;;;;;;8.45;5.50;;;;;;;10.85;75.49;102094.50;5110025;28;20111;-74
2022/05/10 00:17:34;;;;;;;17.13;5.50;;;;;;;10.88;75.55;102091.63;5110021;28;20075;-73
2022/05/10 00:19:59;;;;;;;11.15;4.90;;;;;;;10.90;75.51;102087.03;5111523;28;20038;-75
2022/05/10 00:22:24;;;;;;;12.13;5.50;;;;;;;10.93;75.49;102085.97;5111501;28;20130;-74
2022/05/10 00:24:50;;;;;;;8.13;5.15;;;;;;;10.91;75.27;102086.06;5111525;28;20028;-74
2022/05/10 00:27:16;;;;;;;11.27;5.22;;;;;;;10.91;75.34;102083.41;5110079;28;20050;-76
2022/05/10 00:29:42;;;;;;;8.98;5.25;;;;;;;10.92;75.49;102077.09;5110014;28;20043;-74
2022/05/10 00:32:07;;;;;;;13.57;5.38;;;;;;;10.93;75.65;102078.81;5111264;28;20041;-74
2022/05/10 00:34:34;;;;;;;11.23;5.20;;;;;;;10.94;75.50;102075.19;5093132;28;20103;-74
2022/05/10 00:37:01;;;;;;;9.13;4.82;;;;;;;10.97;75.51;102078.59;5111262;28;20031;-74
2022/05/10 00:39:26;;;;;;;12.80;5.72;;;;;;;11.00;75.55;102070.38;5110952;28;20048;-74
2022/05/10 00:41:58;;;;;;;11.27;5.93;;;;;;;11.03;75.47;102064.81;5111597;28;20038;-74
2022/05/10 00:44:31;;;;;;;10.80;5.75;;;;;;;11.07;75.76;102061.81;5111395;28;20074;-74
2022/05/10 00:47:06;;;;;;;10.18;5.78;;;;;;;11.13;75.78;102051.69;5111420;28;20051;-74
2022/05/10 00:49:35;;;;;;;11.43;6.03;;;;;;;11.21;75.70;102051.97;5111432;28;20417;-74
2022/05/10 00:52:03;;;;;;;17.98;6.80;;;;;;;11.27;75.41;102048.84;5111048;28;20028;-73
2022/05/10 00:54:58;;;;;;;16.90;7.40;;;;;;;11.34;75.20;102044.75;5113762;28;20104;-74
2022/05/10 00:58:05;;;;;;;15.60;6.68;;;;;;;11.42;74.97;102041.50;5115200;28;20031;-73
2022/05/10 01:00:31;;;;;;;18.13;6.65;;;;;;;11.51;74.82;102040.84;5024473;28;20518;-73
2022/05/10 01:03:18;;;;;;;16.90;6.38;;;;;;;11.56;74.35;102037.81;5114538;28;20127;-73
2022/05/10 01:06:03;;;;;;;13.90;6.07;;;;;;;11.58;73.91;102033.22;5114231;28;20416;-73
2022/05/10 01:08:47;;;;;;;10.40;5.40;;;;;;;11.57;73.55;102037.72;5096673;28;20309;-73
2022/05/10 01:11:21;;;;;;;15.75;6.25;;;;;;;11.55;73.86;102028.97;5114522;28;20098;-73
2022/05/10 01:13:52;;;;;;;11.63;5.30;;;;;;;11.54;73.43;102027.28;5115205;28;20035;-73
2022/05/10 01:16:20;;;;;;;11.00;5.43;;;;;;;11.53;73.63;102025.56;5114388;28;20111;-73
2022/05/10 01:18:47;;;;;;;12.85;5.90;;;;;;;11.51;73.50;102022.19;5114270;28;20027;-73
2022/05/10 01:21:24;;;;;;;10.45;6.32;;;;;;;11.47;73.50;102013.56;5114581;28;20440;-73
2022/05/10 01:24:03;;;;;;;13.10;6.15;;;;;;;11.43;73.67;102013.91;5114359;28;20055;-73
2022/05/10 01:26:50;;;;;;;9.55;5.60;;;;;;;11.41;73.64;102008.69;5114178;28;20099;-74
2022/05/10 01:29:38;;;;;;;13.25;5.88;;;;;;;11.39;73.74;102005.31;5114416;28;20123;-74
2022/05/10 01:35:00;;;;;;;10.77;5.88;;;;;;;11.40;74.07;101996.31;5084641;28;20039;-74
2022/05/10 01:37:31;;;;;;;12.57;6.25;;;;;;;11.44;74.38;101995.13;5113682;28;20027;-75
2022/05/10 01:40:05;;;;;;;12.35;7.07;;;;;;;11.53;74.63;101985.59;5114509;28;20137;-73
2022/05/10 01:42:38;;;;;;;12.70;7.15;;;;;;;11.63;74.52;101977.75;5114104;28;20034;-74
2022/05/10 01:45:42;;;;;;;15.80;7.35;;;;;;;11.74;74.32;101977.75;5114224;28;20096;-73
2022/05/10 01:48:12;;;;;;;21.15;7.75;;;;;;;11.85;73.98;101981.41;5113442;28;20043;-73
2022/05/10 01:50:44;;;;;;;16.85;7.25;;;;;;;11.95;73.47;101974.41;5114601;28;20027;-73
2022/05/10 01:53:15;;;;;;;14.80;7.22;;;;;;;12.03;73.50;101971.16;5114090;28;20072;-74
2022/05/10 01:55:51;;;;;;;14.15;7.45;;;;;;;12.10;73.16;101973.19;5113729;28;20024;-74
2022/05/10 01:58:23;;;;;;;18.85;7.90;;;;;;;12.19;72.62;101971.63;5113566;28;20035;-74
2022/05/10 02:00:54;;;;;;;;;;;;;;;12.26;72.49;101953.31;5114503;28;20073;-74
2022/05/10 02:03:32;;;;;;;18.33;8.00;;;;;;;12.33;72.03;101959.84;5095647;28;19908;-74
2022/05/10 02:06:12;;;;;;;14.18;6.95;;;;;;;12.38;72.04;101955.00;5094830;28;20420;-74
2022/05/10 02:09:03;;;;;;;18.30;7.10;;;;;;;12.41;71.83;101954.75;5113428;28;20050;-75
2022/05/10 02:11:29;;;;;;;18.38;7.75;;;;;;;12.47;71.59;101948.06;5113001;28;20455;-80
2022/05/10 02:14:13;;;;;;;26.23;7.80;;;;;;;12.52;71.83;101957.41;5078084;28;20027;-74
2022/05/10 02:16:41;;;;;;;16.95;6.82;;;;;;;12.57;71.56;101943.69;5113054;28;20037;-74
2022/05/10 02:19:17;;;;;;;13.13;7.35;;;;;;;12.63;71.32;101937.84;5113415;28;20070;-75
2022/05/10 02:21:54;;;;;;;15.73;7.63;;;;;;;12.70;70.87;101932.81;5113191;28;20035;-74
2022/05/10 02:24:41;;;;;;;14.18;7.00;;;;;;;12.78;70.36;101938.41;5113353;28;20023;-74
2022/05/10 02:27:20;;;;;;;17.23;7.35;;;;;;;12.83;70.30;101938.84;5113307;28;20028;-75
2022/05/10 02:29:48;;;;;;;23.45;7.43;;;;;;;12.88;70.27;101935.78;5094515;28;20028;-74
2022/05/10 02:35:06;;;;;;;16.05;7.55;;;;;;;12.93;69.80;101925.59;5113509;28;20049;-74
2022/05/10 02:37:32;;;;;;;15.38;7.20;;;;;;;12.97;69.64;101924.38;5112661;28;20045;-82
2022/05/10 02:39:59;;;;;;;16.48;7.55;;;;;;;13.00;69.58;101926.78;5113120;28;20024;-74
2022/05/10 02:42:26;;;;;;;14.27;7.90;;;;;;;13.05;69.16;101921.88;5113212;28;20059;-74
2022/05/10 02:44:54;;;;;;;16.48;7.95;;;;;;;13.09;69.26;101918.97;5112706;28;20027;-74
2022/05/10 02:47:42;;;;;;;15.57;7.93;;;;;;;13.10;69.04;101912.63;5112763;28;20031;-74
2022/05/10 02:50:29;;;;;;;15.85;8.50;;;;;;;13.14;68.64;101914.09;5112634;28;20079;-74
2022/05/10 02:52:54;;;;;;;14.52;7.38;;;;;;;13.13;68.63;101909.72;5112771;28;20458;-74
2022/05/10 02:55:37;;;;;;;15.20;7.20;;;;;;;13.15;68.65;101911.28;5112424;28;20098;-74
2022/05/10 02:58:28;;;;;;;15.48;7.22;;;;;;;13.17;68.63;101912.00;5112466;28;20031;-74
2022/05/10 03:01:05;;;;;;;14.73;7.65;;;;;;;13.18;68.39;101904.81;5079689;28;20035;-75
2022/05/10 03:03:32;;;;;;;17.98;7.53;;;;;;;13.21;68.18;101896.53;5112933;28;20039;-74
2022/05/10 03:05:57;;;;;;;17.13;7.63;;;;;;;13.25;68.27;101897.13;5112330;28;20119;-74
2022/05/10 03:08:22;;;;;;;20.17;7.85;;;;;;;13.27;68.14;101898.72;5111978;28;20440;-74
2022/05/10 03:10:48;;;;;;;10.68;6.70;;;;;;;13.29;68.14;101896.75;5112203;28;20338;-74
2022/05/10 03:13:14;;;;;;;11.45;6.63;;;;;;;13.30;67.85;101895.78;5111957;28;20039;-74
2022/05/10 03:15:40;;;;;;;17.77;7.80;;;;;;;13.30;67.87;101893.09;5112091;28;20031;-74
2022/05/10 03:18:05;;;;;;;12.68;7.63;;;;;;;13.31;68.09;101893.94;5112056;28;20032;-74
2022/05/10 03:20:32;;;;;;;19.67;7.60;;;;;;;13.35;68.00;101893.56;5112089;28;20042;-74
2022/05/10 03:22:58;;;;;;;17.52;7.82;;;;;;;13.38;67.36;101887.13;5111993;28;20036;-73
2022/05/10 03:25:24;;;;;;;16.88;7.85;;;;;;;13.39;67.13;101887.00;5112544;28;20073;-75
2022/05/10 03:27:50;;;;;;;21.15;8.45;;;;;;;13.39;67.38;101887.00;5094008;28;20063;-74
2022/05/10 03:30:17;;;;;;;14.77;6.93;;;;;;;13.35;67.50;101880.19;5112775;28;20427;-75
2022/05/10 03:32:43;;;;;;;15.63;7.35;;;;;;;13.34;67.64;101881.16;5093764;28;20023;-73
2022/05/10 03:35:09;;;;;;;17.50;8.10;;;;;;;13.32;67.61;101875.09;5093583;28;20028;-74
2022/05/10 03:37:34;;;;;;;13.15;7.35;;;;;;;13.28;67.59;101868.31;5111728;28;20032;-74
2022/05/10 03:40:00;;;;;;;15.60;7.30;;;;;;;13.29;67.81;101874.53;5093599;28;20035;-73
2022/05/10 03:42:26;;;;;;;14.98;8.13;;;;;;;13.28;67.90;101879.00;5111961;28;20039;-73
2022/05/10 03:44:55;;;;;;;15.02;7.13;;;;;;;13.29;67.69;101867.34;5111489;28;20046;-74
2022/05/10 03:47:23;;;;;;;16.33;8.52;;;;;;;13.31;67.80;101870.72;5111772;28;20034;-73
2022/05/10 03:49:49;;;;;;;17.08;7.85;;;;;;;13.32;67.53;101875.09;5111682;28;20031;-73
2022/05/10 03:52:15;;;;;;;15.77;7.88;;;;;;;13.32;68.05;101869.75;5111633;28;20403;-73
2022/05/10 03:54:41;;;;;;;17.17;7.28;;;;;;;13.33;68.01;101855.41;5093533;28;20136;-80
2022/05/10 03:57:07;;;;;;;18.10;8.35;;;;;;;13.36;67.51;101863.19;5111482;28;20031;-73
2022/05/10 03:59:33;;;;;;;17.17;8.07;;;;;;;13.39;67.45;101854.91;5111644;28;20384;-73
2022/05/10 04:01:58;;;;;;;16.83;7.80;;;;;;;13.45;67.42;101858.03;5111545;28;20100;-73
2022/05/10 04:04:24;;;;;;;19.23;8.75;;;;;;;13.45;67.03;101850.00;5111808;28;20464;-73
2022/05/10 04:06:49;;;;;;;17.48;7.82;;;;;;;13.46;67.36;101851.69;5111185;28;20444;-73
2022/05/10 04:09:16;;;;;;;19.17;7.90;;;;;;;13.50;67.35;101839.78;5111652;28;20424;-74
2022/05/10 04:11:43;;;;;;;11.32;7.18;;;;;;;13.52;67.07;101851.16;5111540;28;20050;-73
2022/05/10 04:14:08;;;;;;;17.50;8.15;;;;;;;13.56;67.40;101850.75;5111391;28;20035;-73
2022/05/10 04:16:33;;;;;;;19.27;8.00;;;;;;;13.58;66.85;101848.81;5111816;28;20490;-73
2022/05/10 04:18:59;;;;;;;16.50;8.38;;;;;;;13.61;66.99;101839.66;5110962;28;20028;-73
2022/05/10 04:21:24;;;;;;;21.52;7.93;;;;;;;13.66;67.09;101844.59;5093035;28;20046;-72
2022/05/10 04:23:49;;;;;;;15.27;8.15;;;;;;;13.70;67.22;101840.69;5111002;28;20027;-73
2022/05/10 04:26:19;;;;;;;15.57;7.80;;;;;;;13.73;67.17;101833.25;5111418;28;20478;-73
2022/05/10 04:28:44;;;;;;;17.77;8.20;;;;;;;13.77;66.96;101836.50;5113018;28;20118;-73
2022/05/10 04:31:10;;;;;;;11.55;7.68;;;;;;;13.81;66.83;101835.25;5096683;28;20106;-73
2022/05/10 04:33:36;;;;;;;17.20;8.50;;;;;;;13.84;66.84;101843.00;5115543;28;20360;-72
2022/05/10 04:36:01;;;;;;;14.02;7.72;;;;;;;13.89;66.62;101835.38;5115680;28;20424;-72
2022/05/10 04:38:27;;;;;;;14.55;8.75;;;;;;;13.98;66.07;101839.06;5115174;28;20055;-72
2022/05/10 04:43:38;;;;;;;14.57;7.75;;;;;;;14.08;66.05;101821.22;5115825;28;20103;-73
2022/05/10 04:46:03;;;;;;;19.58;8.95;;;;;;;14.10;65.90;101829.09;5115326;28;20028;-72
2022/05/10 04:48:29;;;;;;;20.15;8.00;;;;;;;14.15;65.29;101824.16;5115374;28;20040;-72
2022/05/10 04:50:54;;;;;;;24.25;8.07;;;;;;;14.20;65.51;101821.09;5115700;28;20165;-72
2022/05/10 04:53:20;;;;;;;16.80;8.15;;;;;;;14.23;64.57;101823.50;5116019;28;20116;-73
2022/05/10 04:55:48;;;;;;;17.33;7.93;;;;;;;14.28;64.60;101814.03;5116375;28;20424;-73
2022/05/10 04:58:14;;;;;;;19.05;8.68;;;;;;;14.33;64.35;101818.13;5115913;28;20027;-76
2022/05/10 05:00:39;;;;;;;21.33;7.70;;;;;;;14.36;64.50;101816.03;5115773;28;20371;-73
2022/05/10 05:03:05;;;;;;;19.52;8.23;;;;;;;14.41;64.40;101820.97;5115512;28;20036;-74
2022/05/10 05:05:30;;;;;;;22.17;8.63;;;;;;;14.45;64.79;101825.03;5116183;28;20479;-73
2022/05/10 05:07:55;;;;;;;18.90;8.38;;;;;;;14.48;64.79;101831.97;5097511;28;20546;-74
2022/05/10 05:10:21;;;;;;;19.95;8.43;;;;;;;14.52;64.20;101830.69;5097884;28;20032;-74
2022/05/10 05:12:46;;;;;;;23.73;7.93;;;;;;;14.54;64.33;101831.38;5097733;28;20118;-73
2022/05/10 05:15:12;;;;;;;22.10;8.93;;;;;;;14.56;64.46;101822.25;5116312;28;20100;-72
2022/05/10 05:17:38;;;;;;;21.50;8.95;;;;;;;14.59;64.59;101829.16;5115643;28;20077;-73
2022/05/10 05:20:04;;;;;;;17.83;8.00;;;;;;;14.62;64.52;101835.09;5097471;28;20440;-72
2022/05/10 05:22:30;;;;;;;18.25;8.60;;;;;;;14.66;64.29;101830.31;5115515;28;20078;-72
2022/05/10 05:24:56;;;;;;;16.42;8.88;;;;;;;14.71;63.95;101833.41;5115788;28;20036;-80
2022/05/10 05:27:21;;;;;;;18.27;9.05;;;;;;;14.76;63.91;101833.84;5115485;28;20126;-72
2022/05/10 05:29:47;;;;;;;18.15;9.48;;;;;;;14.85;63.81;101834.78;5115486;28;20400;-72
2022/05/10 05:32:14;;;;;;;24.73;9.32;;;;;;;14.92;63.40;101830.56;5115630;28;20043;-72
2022/05/10 05:34:40;;;;;;;20.75;9.55;;;;;;;14.99;63.86;101829.00;5116046;28;20368;-72
2022/05/10 05:39:49;;;;;;;19.80;8.82;;;;;;;15.14;63.27;101818.66;5115047;28;20186;-73
2022/05/10 05:42:15;;;;;;;19.08;8.43;;;;;;;15.23;62.53;101819.63;5115305;28;20031;-74
2022/05/10 05:44:40;;;;;;;23.63;9.07;;;;;;;15.31;62.08;101809.00;5115077;28;20463;-73
2022/05/10 05:47:06;;;;;;;16.23;8.70;;;;;;;15.41;62.08;101808.16;5115666;28;20024;-74
2022/05/10 05:49:31;;;;;;;19.15;9.20;;;;;;;15.50;61.59;101797.38;5115256;28;20428;-73
2022/05/10 05:52:01;;;;;;;22.38;9.45;;;;;;;15.59;61.17;101803.69;5096762;28;20031;-80
2022/05/10 05:54:27;;;;;;;21.77;9.50;;;;;;;15.70;61.12;101797.25;5096658;28;20027;-73
2022/05/10 05:57:04;;;;;;;17.50;9.15;;;;;;;15.77;60.66;101798.34;5115055;28;20035;-73
2022/05/10 05:59:30;;;;;;;20.95;9.18;;;;;;;15.82;60.31;101795.25;5114759;28;20079;-73
2022/05/10 06:01:56;;;;;;;28.83;9.88;;;;;;;15.87;60.76;101798.34;5114990;28;20442;-73
2022/05/10 06:04:22;;;;;;;20.15;9.30;;;;;;;15.93;60.01;101797.75;5096780;28;20089;-72
2022/05/10 06:06:48;;;;;;;19.00;9.23;;;;;;;16.02;59.30;101798.69;5114485;28;20430;-72
2022/05/10 06:09:13;;;;;;;20.65;9.95;;;;;;;16.13;59.35;101798.44;5115034;28;20035;-73
2022/05/10 06:11:39;;;;;;;19.42;8.65;;;;;;;16.20;59.69;101796.84;5115058;28;20028;-73
2022/05/10 06:14:04;;;;;;;20.10;8.85;;;;;;;16.29;58.37;101797.75;5115210;28;20032;-73
2022/05/10 06:16:30;;;;;;;23.30;9.32;;;;;;;16.37;58.13;101788.94;5114919;28;20399;-72
2022/05/10 06:18:56;;;;;;;21.90;9.90;;;;;;;16.47;58.75;101784.31;5114230;28;20115;-73
2022/05/10 06:21:21;;;;;;;19.40;8.90;;;;;;;16.55;57.93;101783.53;5114108;28;20445;-72
2022/05/10 06:23:46;;;;;;;19.95;8.55;;;;;;;16.64;58.13;101781.78;5114280;28;20024;-73
2022/05/10 06:26:12;;;;;;;27.58;8.73;;;;;;;16.75;57.37;101781.53;5114395;28;20046;-73
2022/05/10 06:28:38;;;;;;;16.77;8.57;;;;;;;16.82;57.58;101779.03;5095703;28;20042;-74
2022/05/10 06:31:08;;;;;;;24.60;8.75;;;;;;;16.89;57.32;101774.75;5078663;28;20367;-84
2022/05/10 06:33:33;;;;;;;20.38;7.93;;;;;;;16.92;56.70;101767.22;5113929;28;20110;-74
2022/05/10 06:35:59;;;;;;;18.80;8.07;;;;;;;17.01;56.99;101767.28;5113933;28;20028;-74
2022/05/10 06:38:28;;;;;;;18.00;7.90;;;;;;;17.09;56.21;101760.09;5113688;28;20456;-72
2022/05/10 06:41:00;;;;;;;19.08;8.27;;;;;;;17.19;56.31;101768.03;5113655;28;20460;-74
2022/05/10 06:43:25;;;;;;;17.00;7.53;;;;;;;17.29;56.19;101770.63;5114111;28;20058;-75
2022/05/10 06:45:51;;;;;;;25.13;7.85;;;;;;;17.39;55.62;101770.47;5114224;28;20440;-75
2022/05/10 06:48:16;;;;;;;18.13;8.00;;;;;;;17.50;55.29;101759.44;5113983;28;20424;-76
2022/05/10 06:50:43;;;;;;;18.00;7.63;;;;;;;17.59;54.64;101754.94;5113190;28;20476;-71
2022/05/10 06:53:10;;;;;;;17.00;7.57;;;;;;;17.63;55.52;101757.13;5113646;28;20027;-72
2022/05/10 06:55:38;;;;;;;15.95;7.55;;;;;;;17.76;54.19;101755.81;5113570;28;20031;-75
2022/05/10 06:58:04;;;;;;;24.40;7.32;;;;;;;17.84;54.17;101749.59;5113453;28;20404;-73
2022/05/10 07:00:32;;;;;;;12.55;6.70;;;;;;;17.96;53.94;101751.88;5113424;28;20074;-72
2022/05/10 07:02:58;;;;;;;15.95;6.53;;;;;;;18.06;54.06;101757.09;5113467;28;20031;-74
2022/05/10 07:05:23;;;;;;;15.20;6.15;;;;;;;18.15;53.78;101745.34;5113313;28;20050;-74
2022/05/10 07:07:49;;;;;;;17.13;5.28;;;;;;;18.22;53.65;101742.81;5113314;28;20050;-72
2022/05/10 07:10:16;;;;;;;17.08;5.82;;;;;;;18.31;52.56;101744.47;5113691;28;20093;-74
2022/05/10 07:12:43;;;;;;;11.60;5.60;;;;;;;18.40;53.17;101742.63;5112733;28;20298;-73
2022/05/10 07:15:13;;;;;;;13.93;4.93;;;;;;;18.48;51.80;101737.25;5113019;28;20084;-78
2022/05/10 07:17:38;;;;;;;13.55;5.22;;;;;;;18.60;52.63;101745.84;5112946;28;20074;-73
2022/05/10 07:20:08;;;;;;;11.25;4.85;;;;;;;18.70;52.26;101742.94;5113519;28;20485;-74
2022/05/10 07:22:34;;;;;;;17.92;4.80;;;;;;;18.74;52.23;101746.16;5113103;28;20535;-76
2022/05/10 07:24:59;;;;;;;12.07;4.68;;;;;;;18.78;51.14;101745.63;5078021;28;20051;-76
2022/05/10 07:27:24;;;;;;;14.00;4.53;;;;;;;18.95;50.79;101749.16;5094618;28;20066;-74
2022/05/10 07:29:50;;;;;;;16.08;5.00;;;;;;;19.12;51.03;101732.94;5094906;28;20034;-77
2022/05/10 07:32:16;;;;;;;12.48;5.03;;;;;;;19.34;49.98;101715.16;5113026;28;20067;-73
2022/05/10 07:34:42;;;;;;;12.07;4.78;;;;;;;19.59;48.93;101723.97;5094565;28;20036;-75
2022/05/10 07:37:08;;;;;;;12.55;4.60;;;;;;;20.03;48.38;101730.63;5095035;28;20112;-76
2022/05/10 07:39:33;;;;;;;8.57;4.05;;;;;;;20.06;47.34;101733.81;5111938;28;20059;-74
2022/05/10 07:42:01;;;;;;;17.95;4.65;;;;;;;20.16;48.10;101724.63;5112476;28;20464;-74
2022/05/10 07:44:26;;;;;;;9.82;4.70;;;;;;;20.21;48.16;101723.06;5112979;28;20039;-74
2022/05/10 07:46:52;;;;;;;15.38;4.63;;;;;;;20.28;47.99;101723.16;5112596;28;20034;-76
2022/05/10 07:49:17;;;;;;;13.27;4.95;;;;;;;20.40;47.21;101720.88;5112738;28;20422;-77
2022/05/10 07:51:43;;;;;;;8.80;4.47;;;;;;;20.53;47.58;101723.78;5112939;28;20038;-75
2022/05/10 07:54:08;;;;;;;9.45;4.10;;;;;;;20.82;47.13;101716.75;5112993;28;20127;-73
2022/05/10 07:56:33;;;;;;;11.57;4.63;;;;;;;21.23;46.19;101720.84;5095879;28;20035;-75
2022/05/10 07:58:59;;;;;;;8.98;4.13;;;;;;;21.44;45.77;101728.22;5095082;28;20520;-73
2022/05/10 08:01:26;;;;;;;15.80;4.50;;;;;;;21.58;45.15;101716.53;5113246;28;20043;-75
2022/05/10 08:03:51;;;;;;;21.85;4.93;;;;;;;21.68;44.47;101724.34;5111894;28;20055;-72
2022/05/10 08:06:17;;;;;;;9.85;4.20;;;;;;;21.81;43.55;101720.94;5112680;28;20092;-78
2022/05/10 08:08:43;;;;;;;13.27;4.38;;;;;;;21.93;43.40;101718.53;5095204;28;20034;-77
2022/05/10 08:11:09;;;;;;;8.80;4.80;;;;;;;21.85;43.06;101711.38;5113117;28;20409;-69
2022/05/10 08:13:37;;;;;;;9.18;4.65;;;;;;;21.74;43.96;101715.44;5094561;28;20027;-75
2022/05/10 08:16:02;;;;;;;17.38;4.43;;;;;;;21.59;44.03;101715.50;5113583;28;20097;-72
2022/05/10 08:18:28;;;;;;;17.13;4.45;;;;;;;21.79;43.80;101712.16;5094225;28;20039;-71
2022/05/10 08:20:56;;;;;;;10.43;4.15;;;;;;;21.97;44.30;101712.53;5112991;28;20038;-71
2022/05/10 08:23:30;;;;;;;9.57;4.80;;;;;;;22.07;42.52;101717.66;5113031;28;20031;-73
2022/05/10 08:25:57;;;;;;;8.65;3.85;;;;;;;21.76;43.13;101710.66;5112359;28;20038;-71
2022/05/10 08:28:24;;;;;;;10.23;3.85;;;;;;;21.86;45.12;101718.50;5112938;28;20028;-72
2022/05/10 08:30:51;;;;;;;11.55;4.20;;;;;;;21.90;44.52;101718.94;5112349;28;20046;-71
2022/05/10 08:33:23;;;;;;;10.70;4.13;;;;;;;21.83;43.59;101717.00;5112865;28;20059;-72
2022/05/10 08:35:50;;;;;;;9.43;4.35;;;;;;;22.01;44.23;101710.31;5112488;28;20115;-73
2022/05/10 08:38:16;;;;;;;6.07;3.75;;;;;;;22.18;43.72;101714.44;5112464;28;20055;-77
2022/05/10 08:40:59;;;;;;;9.88;4.72;;;;;;;22.21;42.86;101718.59;5094685;28;20035;-72
2022/05/10 08:43:47;;;;;;;17.95;4.40;;;;;;;23.11;43.16;101720.75;5112946;28;20114;-77
2022/05/10 08:46:16;;;;;;;5.70;3.97;;;;;;;23.97;40.69;101724.81;5112564;28;20027;-79
2022/05/10 08:48:47;;;;;;;11.77;3.90;;;;;;;24.27;40.26;101725.25;5112919;28;20085;-79
2022/05/10 08:51:13;;;;;;;8.85;4.22;;;;;;;23.86;40.68;101740.69;5112523;28;20027;-78
2022/05/10 08:53:39;;;;;;;10.80;4.30;;;;;;;23.45;40.46;101727.16;5112529;28;20054;-74
2022/05/10 08:56:25;;;;;;;7.25;4.05;;;;;;;23.18;41.05;101710.75;5112827;28;20459;-74
2022/05/10 08:59:32;;;;;;;9.45;3.90;;;;;;;23.28;42.00;101726.69;5112664;28;20028;-72
2022/05/10 09:02:14;;;;;;;8.18;3.85;;;;;;;23.56;39.58;101723.88;5111965;28;20464;-74
2022/05/10 09:04:47;;;;;;;10.32;4.30;;;;;;;23.92;38.83;101728.16;5112968;28;20031;-78
2022/05/10 09:07:31;;;;;;;6.72;3.80;;;;;;;23.81;39.51;101734.16;5112403;28;20050;-76
2022/05/10 09:10:03;;;;;;;8.45;4.18;;;;;;;23.28;40.08;101732.13;5112881;28;20030;-73
2022/05/10 09:12:33;;;;;;;13.55;4.18;;;;;;;22.76;41.00;101721.56;5112062;28;20131;-71
2022/05/10 09:15:03;;;;;;;12.07;3.85;;;;;;;22.48;41.90;101733.28;5114192;28;20031;-73
2022/05/10 09:17:31;;;;;;;8.43;4.20;;;;;;;22.39;42.14;101725.47;5097422;28;20069;-73
2022/05/10 09:19:57;;;;;;;10.82;4.50;;;;;;;22.14;43.13;101729.41;5115539;28;20028;-73
2022/05/10 09:22:48;;;;;;;11.52;4.00;;;;;;;22.32;44.09;101730.84;5115527;28;20035;-74
2022/05/10 09:25:19;;;;;;;;;;;;;;;22.75;42.85;101735.31;5098194;28;20024;-73
2022/05/10 09:27:45;;;;;;;10.25;4.18;;;;;;;23.27;41.07;101725.00;5115679;28;19915;-73
2022/05/10 09:30:25;;;;;;;10.52;4.35;;;;;;;23.59;40.06;101718.03;5115940;28;20035;-71
2022/05/10 09:35:50;;;;;;;8.25;3.80;;;;;;;23.64;40.23;101726.38;5116626;28;20039;-76
2022/05/10 09:38:17;;;;;;;10.40;4.00;;;;;;;23.58;40.17;101728.03;5098043;28;20505;-75
2022/05/10 09:40:48;;;;;;;18.17;3.90;;;;;;;23.26;40.77;101739.59;5115980;28;20086;-75
2022/05/10 09:43:25;;;;;;;10.48;4.18;;;;;;;22.80;40.78;101736.41;5116027;28;20031;-75
2022/05/10 09:46:06;;;;;;;11.98;4.22;;;;;;;23.24;39.70;101743.38;5115678;28;20033;-75
2022/05/10 09:48:31;;;;;;;8.40;3.40;;;;;;;24.47;37.40;101734.25;5113935;28;20456;-75
2022/05/10 09:50:57;;;;;;;9.38;3.88;;;;;;;26.14;34.72;101721.91;5115343;28;20038;-76
2022/05/10 09:53:29;;;;;;;15.07;3.50;;;;;;;26.46;32.77;101734.66;5113805;28;20152;-75
2022/05/10 09:56:02;;;;;;;16.23;4.65;;;;;;;24.74;34.89;101731.53;5115153;28;20061;-75
2022/05/10 09:58:42;;;;;;;10.68;4.00;;;;;;;23.49;38.30;101733.88;5115024;28;20024;-75
2022/05/10 10:01:15;;;;;;;15.32;4.18;;;;;;;22.83;39.44;101752.28;5114667;28;20047;-75
2022/05/10 10:03:43;;;;;;;9.82;4.05;;;;;;;22.47;40.04;101757.88;5115128;28;20039;-75
2022/05/10 10:06:24;;;;;;;8.82;3.47;;;;;;;22.43;40.34;101780.97;5114896;28;20228;-74
2022/05/10 10:08:55;;;;;;;9.93;3.65;;;;;;;23.27;38.57;101763.00;5114750;28;20043;-74
2022/05/10 10:11:23;;;;;;;;;;;;;;;23.76;37.00;101756.50;5115068;28;20035;-74
2022/05/10 10:14:10;;;;;;;12.15;4.32;;;;;;;23.27;38.24;101755.69;5114363;28;19936;-75
2022/05/10 10:16:48;;;;;;;8.52;3.65;;;;;;;23.69;37.85;101761.06;5114274;28;20038;-75
2022/05/10 10:19:25;;;;;;;9.00;3.63;;;;;;;24.07;36.42;101758.69;5113002;28;20460;-74
2022/05/10 10:21:56;;;;;;;9.02;3.95;;;;;;;24.71;34.97;101752.91;5114863;28;20027;-74
2022/05/10 10:24:29;;;;;;;7.55;3.63;;;;;;;25.58;33.93;101747.19;5114574;28;20081;-75
2022/05/10 10:27:02;;;;;;;9.75;3.78;;;;;;;25.64;33.78;101749.88;5112498;28;20066;-74
2022/05/10 10:29:40;;;;;;;10.20;3.38;;;;;;;25.75;33.96;101752.97;5114155;28;20027;-75
2022/05/10 10:32:08;;;;;;;7.82;3.55;;;;;;;25.59;33.95;101749.72;5114533;27;20070;-74
2022/05/10 10:34:49;;;;;;;11.10;3.22;;;;;;;25.14;33.46;101750.50;5114158;28;20034;-78
2022/05/10 10:37:28;;;;;;;4.75;2.70;;;;;;;25.11;33.80;101750.06;5113557;28;20084;-74
2022/05/10 10:40:30;;;;;;;9.95;3.30;;;;;;;24.67;34.20;101744.31;5113922;28;20115;-74
2022/05/10 10:43:03;;;;;;;7.15;2.83;;;;;;;23.61;36.04;101744.97;5096345;28;20097;-74
2022/05/10 10:45:51;;;;;;;13.98;2.65;;;;;;;22.99;36.47;101748.44;5114285;28;20063;-74
2022/05/10 10:48:40;;;;;;;9.50;2.70;;;;;;;22.86;36.65;101759.19;5114211;28;20114;-73
2022/05/10 10:51:06;;;;;;;5.05;2.22;;;;;;;22.92;36.09;101747.53;5113958;28;20034;-74
2022/05/10 10:53:34;;;;;;;9.48;2.20;;;;;;;23.11;35.76;101745.16;5114143;28;20034;-75
2022/05/10 10:56:30;;;;;;;7.05;2.10;;;;;;;23.78;35.10;101743.53;5113507;28;20128;-74
2022/05/10 10:59:17;;;;;;;3.13;2.13;;;;;;;23.87;34.89;101741.50;5113561;28;20116;-73
2022/05/10 11:01:59;;;;;;;6.25;2.28;;;;;;;24.79;33.57;101739.88;5095698;28;20371;-73
2022/05/10 11:05:01;;;;;;;9.50;2.50;;;;;;;25.97;33.09;101737.09;5095880;28;20134;-71
2022/05/10 11:07:49;;;;;;;6.90;2.58;;;;;;;26.08;31.88;101743.75;5113892;28;20106;-73
2022/05/10 11:10:44;;;;;;;11.80;2.95;;;;;;;25.34;34.02;101739.53;5113532;28;20484;-73
2022/05/10 11:13:23;;;;;;;10.75;3.30;;;;;;;24.95;34.48;101757.66;5113591;28;20084;-76
2022/05/10 11:16:26;;;;;;;6.47;3.13;;;;;;;24.70;34.85;101738.44;5112977;28;20039;-74
2022/05/10 11:19:01;;;;;;;8.85;3.05;;;;;;;23.92;36.25;101733.59;5107757;28;20032;-73
2022/05/10 11:22:17;;;;;;;8.38;3.03;;;;;;;23.81;35.58;101723.28;5113505;28;20464;-75
2022/05/10 11:25:14;;;;;;;4.50;2.75;;;;;;;24.17;36.88;101736.56;5057265;28;20456;-72
2022/05/10 11:27:48;;;;;;;6.00;3.20;;;;;;;23.69;36.54;101723.03;5094949;28;20031;-79
2022/05/10 11:30:39;;;;;;;9.55;3.17;;;;;;;24.04;37.05;101726.50;5113734;28;20108;-76
2022/05/10 11:33:13;;;;;;;11.57;3.53;;;;;;;24.97;34.99;101739.22;5113744;28;20076;-75
2022/05/10 11:35:58;;;;;;;6.85;2.92;;;;;;;25.58;33.33;101734.41;5113079;28;20475;-77
2022/05/10 11:38:47;;;;;;;14.55;2.78;;;;;;;26.29;32.47;101723.47;5114244;28;20134;-74
2022/05/10 11:41:29;;;;;;;8.02;2.38;;;;;;;26.90;31.71;101716.38;5113980;28;20480;-75
2022/05/10 11:44:20;;;;;;;8.82;2.40;;;;;;;26.86;30.14;101718.75;5113775;28;20027;-75
2022/05/10 11:47:28;;;;;;;7.50;1.90;;;;;;;25.09;31.10;101724.94;5094741;28;20028;-75
2022/05/10 11:50:12;;;;;;;9.93;2.22;;;;;;;24.35;32.23;101725.06;5113183;28;20039;-75
2022/05/10 11:52:56;;;;;;;4.05;1.90;;;;;;;23.38;32.21;101724.44;5112983;28;20027;-75